Time;durP1;ratioP1;P1;durP2;ratioP2;P2;SDS_P1;SDS_P2;PMS_P1;PMS_P2;Temp;Humidity;BMP_temperature;BMP_pressure;BME280_temperature;BME280_humidity;BME280_pressure;Samples;Min_cycle;Max_cycle;Signal;HPM_P1;HPM_P2
2021/04/16 00:00:42;;;;;;;5.80;1.85;;;2.90;99.90;;;;;;5015322;28;20165;-64
2021/04/16 00:03:09;;;;;;;5.70;2.08;;;2.80;99.90;;;;;;5017669;28;20041;-63
2021/04/16 00:05:36;;;;;;;9.27;2.47;;;2.80;99.90;;;;;;5016872;28;20083;-63
2021/04/16 00:08:05;;;;;;;6.22;2.10;;;2.80;99.90;;;;;;5019397;28;20126;-63
2021/04/16 00:10:36;;;;;;;6.95;2.40;;;2.80;99.90;;;;;;5016860;28;20683;-63
2021/04/16 00:13:03;;;;;;;7.40;2.50;;;2.80;99.90;;;;;;5017432;28;20488;-63
2021/04/16 00:15:32;;;;;;;5.47;2.40;;;2.90;99.90;;;;;;5015279;28;20045;-63
2021/04/16 00:17:57;;;;;;;4.80;2.03;;;2.90;99.90;;;;;;5017778;28;20116;-63
2021/04/16 00:20:28;;;;;;;8.00;2.17;;;2.90;99.90;;;;;;5013364;28;20044;-63
2021/04/16 00:22:54;;;;;;;5.28;1.90;;;2.90;99.90;;;;;;5017648;28;20132;-63
2021/04/16 00:25:23;;;;;;;3.45;1.75;;;2.90;99.90;;;;;;5017792;28;20052;-63
2021/04/16 00:27:49;;;;;;;6.68;2.05;;;2.80;99.90;;;;;;5015717;28;20087;-63
2021/04/16 00:30:18;;;;;;;4.25;2.05;;;2.80;99.90;;;;;;5014822;28;20037;-63
2021/04/16 00:32:43;;;;;;;4.95;1.95;;;2.80;99.90;;;;;;5016215;28;20576;-63
2021/04/16 00:35:10;;;;;;;5.95;2.25;;;2.70;99.90;;;;;;5018702;28;20030;-63
2021/04/16 00:37:36;;;;;;;5.55;2.05;;;2.70;99.90;;;;;;5015067;28;20026;-63
2021/04/16 00:40:05;;;;;;;5.47;2.33;;;2.70;99.90;;;;;;5015186;28;20036;-63
2021/04/16 00:42:31;;;;;;;4.28;2.30;;;2.70;99.90;;;;;;5016256;28;20493;-63
2021/04/16 00:44:57;;;;;;;5.65;1.92;;;2.70;99.90;;;;;;5016094;28;20346;-63
2021/04/16 00:47:23;;;;;;;5.07;2.50;;;2.60;99.90;;;;;;5014566;28;20057;-63
2021/04/16 00:49:52;;;;;;;7.75;2.45;;;2.50;99.90;;;;;;5015476;28;20446;-63
2021/04/16 00:52:26;;;;;;;7.88;2.72;;;2.50;99.90;;;;;;5016560;28;20382;-63
2021/04/16 00:54:53;;;;;;;4.50;2.17;;;2.40;99.90;;;;;;5016857;28;20682;-63
2021/04/16 00:57:19;;;;;;;6.53;2.30;;;2.40;99.90;;;;;;5014916;28;20567;-63
2021/04/16 00:59:49;;;;;;;8.38;2.38;;;2.30;99.90;;;;;;5016201;28;20044;-63
2021/04/16 01:02:15;;;;;;;5.38;2.08;;;2.30;99.90;;;;;;5013011;28;20032;-63
2021/04/16 01:04:41;;;;;;;7.38;1.85;;;2.30;99.90;;;;;;5016503;28;20415;-63
2021/04/16 01:07:09;;;;;;;6.40;2.00;;;2.30;99.90;;;;;;5014442;28;20026;-63
2021/04/16 01:09:35;;;;;;;6.65;2.00;;;2.20;99.90;;;;;;5017928;28;20508;-63
2021/04/16 01:12:07;;;;;;;3.85;2.10;;;2.20;99.90;;;;;;5016362;28;20033;-63
2021/04/16 01:14:36;;;;;;;8.80;2.78;;;2.10;99.90;;;;;;5016761;28;20103;-63
2021/04/16 01:17:03;;;;;;;5.55;2.03;;;2.10;99.90;;;;;;5010400;28;20030;-63
2021/04/16 01:19:40;;;;;;;6.68;2.50;;;2.10;99.90;;;;;;5016687;28;20029;-64
2021/04/16 01:22:20;;;;;;;7.30;2.53;;;2.10;99.90;;;;;;5013943;28;20056;-64
2021/04/16 01:24:46;;;;;;;5.72;2.65;;;2.20;99.90;;;;;;5017220;28;20584;-63
2021/04/16 01:27:13;;;;;;;7.07;3.28;;;2.30;99.90;;;;;;5016192;28;20270;-63
2021/04/16 01:29:41;;;;;;;5.30;2.50;;;2.40;99.90;;;;;;5016291;28;20053;-62
2021/04/16 01:32:09;;;;;;;5.22;2.60;;;2.40;99.90;;;;;;5013373;28;20525;-63
2021/04/16 01:34:35;;;;;;;6.10;2.35;;;2.50;99.90;;;;;;5015798;28;20425;-63
2021/04/16 01:37:01;;;;;;;6.28;3.25;;;2.50;99.90;;;;;;5009797;28;20021;-64
2021/04/16 01:39:28;;;;;;;7.57;2.72;;;2.50;99.90;;;;;;5015548;28;20493;-63
2021/04/16 01:41:55;;;;;;;6.50;2.50;;;2.50;99.90;;;;;;5013516;28;20065;-63
2021/04/16 01:44:25;;;;;;;6.25;2.35;;;2.60;99.90;;;;;;5014307;28;20044;-63
2021/04/16 01:46:58;;;;;;;6.93;2.42;;;2.60;99.90;;;;;;5014710;28;20477;-63
2021/04/16 01:49:38;;;;;;;7.43;2.97;;;2.60;99.90;;;;;;5014944;28;20036;-63
2021/04/16 01:52:10;;;;;;;6.97;2.60;;;2.60;99.90;;;;;;5014371;28;20837;-63
2021/04/16 01:54:44;;;;;;;7.30;3.08;;;2.60;99.90;;;;;;5016851;28;20518;-63
2021/04/16 01:57:14;;;;;;;10.38;4.35;;;2.60;99.90;;;;;;5007346;28;20029;-63
2021/04/16 01:59:42;;;;;;;8.57;2.95;;;2.60;99.90;;;;;;5016562;28;20028;-63
2021/04/16 02:02:16;;;;;;;7.13;3.13;;;2.60;99.90;;;;;;5016111;28;20360;-63
2021/04/16 02:04:43;;;;;;;5.82;2.92;;;2.70;99.90;;;;;;5015759;28;20626;-63
2021/04/16 02:07:09;;;;;;;7.90;3.47;;;2.60;99.90;;;;;;5011731;28;20121;-63
2021/04/16 02:09:38;;;;;;;8.52;3.22;;;2.70;99.90;;;;;;5014543;28;20506;-63
2021/04/16 02:12:06;;;;;;;12.10;3.38;;;2.60;99.90;;;;;;5015195;28;20037;-63
2021/04/16 02:14:32;;;;;;;10.15;3.38;;;2.60;99.90;;;;;;5014254;28;20029;-63
2021/04/16 02:17:11;;;;;;;9.93;3.47;;;2.60;99.90;;;;;;5014984;28;20037;-63
2021/04/16 02:19:37;;;;;;;5.82;3.25;;;2.70;99.90;;;;;;5013110;28;20022;-64
2021/04/16 02:22:06;;;;;;;6.63;2.88;;;2.70;99.90;;;;;;5015107;28;20057;-63
2021/04/16 02:24:32;;;;;;;9.57;2.95;;;2.70;99.90;;;;;;5016034;28;20040;-63
2021/04/16 02:26:58;;;;;;;8.35;3.42;;;2.70;99.90;;;;;;5012799;28;20477;-63
2021/04/16 02:29:24;;;;;;;7.07;3.15;;;2.70;99.90;;;;;;5015334;28;20053;-63
2021/04/16 02:31:51;;;;;;;9.80;3.17;;;2.60;99.90;;;;;;5016170;28;20108;-63
2021/04/16 02:34:24;;;;;;;5.47;2.60;;;2.60;99.90;;;;;;5015106;28;20453;-63
2021/04/16 02:36:53;;;;;;;7.68;3.15;;;2.60;99.90;;;;;;5015082;28;20030;-63
2021/04/16 02:39:20;;;;;;;7.30;2.70;;;2.60;99.90;;;;;;5015542;28;20028;-63
2021/04/16 02:41:46;;;;;;;6.13;3.03;;;2.60;99.90;;;;;;5012673;28;20612;-63
2021/04/16 02:44:12;;;;;;;9.10;3.17;;;2.60;99.90;;;;;;5015224;28;20045;-63
2021/04/16 02:46:38;;;;;;;7.07;3.38;;;2.60;99.90;;;;;;5013692;28;20029;-63
2021/04/16 02:49:04;;;;;;;11.38;3.35;;;2.50;99.90;;;;;;5015737;28;20049;-63
2021/04/16 02:51:30;;;;;;;8.48;3.47;;;2.50;99.90;;;;;;5014210;28;20029;-63
2021/04/16 02:53:56;;;;;;;6.38;3.15;;;2.50;99.90;;;;;;5015648;28;20029;-63
2021/04/16 02:56:23;;;;;;;8.40;3.28;;;2.50;99.90;;;;;;5012682;28;20030;-63
2021/04/16 02:58:49;;;;;;;10.23;3.70;;;2.40;99.90;;;;;;5013438;28;20455;-63
2021/04/16 03:01:15;;;;;;;9.02;3.08;;;2.40;99.90;;;;;;5014050;28;20104;-63
2021/04/16 03:03:40;;;;;;;6.82;3.20;;;2.40;99.90;;;;;;5009253;28;20613;-63
2021/04/16 03:06:07;;;;;;;11.57;3.45;;;2.40;99.90;;;;;;5012344;28;20033;-63
2021/04/16 03:08:33;;;;;;;7.10;2.88;;;2.40;99.90;;;;;;5015648;28;20155;-61
2021/04/16 03:10:59;;;;;;;9.18;3.47;;;2.40;99.90;;;;;;5015547;28;20089;-63
2021/04/16 03:13:25;;;;;;;7.07;2.92;;;2.40;99.90;;;;;;5014623;28;20037;-63
2021/04/16 03:15:51;;;;;;;9.27;3.65;;;2.40;99.90;;;;;;5012908;28;20539;-63
2021/04/16 03:18:17;;;;;;;7.80;3.10;;;2.50;99.90;;;;;;5015287;28;20053;-62
2021/04/16 03:20:44;;;;;;;8.38;2.97;;;2.40;99.90;;;;;;5015448;28;20737;-62
2021/04/16 03:23:10;;;;;;;10.27;3.33;;;2.30;99.90;;;;;;5018562;28;20041;-62
2021/04/16 03:25:36;;;;;;;9.15;2.95;;;2.10;99.90;;;;;;5017245;28;20120;-62
2021/04/16 03:28:03;;;;;;;8.52;2.67;;;1.90;99.90;;;;;;5016490;28;20033;-62
2021/04/16 03:30:30;;;;;;;9.30;2.70;;;1.80;99.90;;;;;;5018467;28;20026;-63
2021/04/16 03:32:55;;;;;;;9.73;2.75;;;1.60;99.90;;;;;;5009914;28;20052;-62
2021/04/16 03:35:22;;;;;;;7.75;3.25;;;1.50;99.90;;;;;;5017650;28;20773;-63
2021/04/16 03:37:49;;;;;;;6.00;2.60;;;1.40;99.90;;;;;;5016376;28;20055;-62
2021/04/16 03:40:19;;;;;;;6.93;3.00;;;1.30;99.90;;;;;;5014966;28;20040;-62
2021/04/16 03:42:45;;;;;;;6.00;2.90;;;1.30;99.90;;;;;;5017560;28;20537;-63
2021/04/16 03:45:14;;;;;;;9.05;3.33;;;1.20;99.90;;;;;;5016624;28;20136;-62
2021/04/16 03:47:44;;;;;;;5.40;2.80;;;1.20;99.90;;;;;;5019492;28;20366;-62
2021/04/16 03:50:13;;;;;;;6.78;2.55;;;1.10;99.90;;;;;;5014531;28;20041;-62
2021/04/16 03:52:38;;;;;;;8.65;3.20;;;1.00;99.90;;;;;;5016961;28;20041;-62
2021/04/16 03:55:05;;;;;;;7.57;3.50;;;1.00;99.90;;;;;;5015439;28;20537;-62
2021/04/16 03:57:32;;;;;;;9.50;3.58;;;1.00;99.90;;;;;;5017751;28;20139;-62
2021/04/16 03:59:58;;;;;;;7.35;3.60;;;0.90;99.90;;;;;;5016446;28;20108;-62
2021/04/16 04:02:25;;;;;;;7.50;3.25;;;0.80;99.90;;;;;;5016149;28;20039;-63
2021/04/16 04:04:51;;;;;;;8.88;3.38;;;0.70;99.90;;;;;;5016190;28;20461;-62
2021/04/16 04:07:17;;;;;;;9.50;4.38;;;0.70;99.90;;;;;;5015650;28;20033;-63
2021/04/16 04:09:43;;;;;;;10.10;4.38;;;0.80;99.90;;;;;;5014540;28;20339;-62
2021/04/16 04:12:10;;;;;;;12.13;4.05;;;0.80;99.90;;;;;;5015307;28;20588;-62
2021/04/16 04:14:36;;;;;;;6.80;3.45;;;0.80;99.90;;;;;;5016583;28;20424;-62
2021/04/16 04:17:04;;;;;;;7.20;3.53;;;0.70;99.90;;;;;;5016596;28;20029;-62
2021/04/16 04:19:33;;;;;;;9.52;3.90;;;0.70;99.90;;;;;;5015694;28;20026;-62
2021/04/16 04:22:00;;;;;;;11.20;3.63;;;0.70;99.90;;;;;;5014975;28;20061;-63
2021/04/16 04:24:27;;;;;;;10.45;3.55;;;0.80;99.90;;;;;;5014667;28;20054;-62
2021/04/16 04:26:52;;;;;;;7.72;3.85;;;0.80;99.90;;;;;;5015957;28;20048;-62
2021/04/16 04:29:21;;;;;;;11.10;4.20;;;0.80;99.90;;;;;;5015171;28;20056;-62
2021/04/16 04:31:47;;;;;;;13.48;5.50;;;0.80;99.90;;;;;;5015385;28;20037;-62
2021/04/16 04:34:25;;;;;;;11.98;4.32;;;0.80;99.90;;;;;;5009778;28;20120;-62
2021/04/16 04:36:55;;;;;;;7.43;3.55;;;0.90;99.90;;;;;;5015751;28;20033;-63
2021/04/16 04:39:23;;;;;;;11.70;3.83;;;0.80;99.90;;;;;;5016406;28;20505;-63
2021/04/16 04:41:49;;;;;;;7.85;3.95;;;0.80;99.90;;;;;;5013585;28;20387;-62
2021/04/16 04:44:15;;;;;;;9.50;3.42;;;0.80;99.90;;;;;;5014881;28;20132;-62
2021/04/16 04:46:41;;;;;;;11.00;3.55;;;0.80;99.90;;;;;;5008623;28;20026;-62
2021/04/16 04:49:08;;;;;;;7.95;3.13;;;0.80;99.90;;;;;;5013480;28;20440;-62
2021/04/16 04:51:36;;;;;;;7.70;3.50;;;0.90;99.90;;;;;;5013853;28;20831;-63
2021/04/16 04:54:02;;;;;;;8.50;4.13;;;0.80;99.90;;;;;;5013537;28;20091;-63
2021/04/16 04:56:28;;;;;;;12.18;3.60;;;0.80;99.90;;;;;;5016402;28;20033;-63
2021/04/16 04:58:54;;;;;;;11.25;3.47;;;0.90;99.90;;;;;;5013092;28;20108;-63
2021/04/16 05:01:20;;;;;;;9.38;3.40;;;1.00;99.90;;;;;;5015989;28;20162;-63
2021/04/16 05:03:47;;;;;;;6.35;3.65;;;1.10;99.90;;;;;;5014760;28;20496;-63
2021/04/16 05:06:12;;;;;;;8.38;3.38;;;1.20;99.90;;;;;;5010966;28;20026;-63
2021/04/16 05:08:38;;;;;;;10.75;3.60;;;1.40;99.90;;;;;;5012952;28;20116;-63
2021/04/16 05:11:06;;;;;;;8.32;3.45;;;1.50;99.90;;;;;;5012132;28;20040;-63
2021/04/16 05:13:32;;;;;;;8.02;3.58;;;1.60;99.90;;;;;;5012899;28;20197;-63
2021/04/16 05:15:58;;;;;;;10.18;3.85;;;1.80;99.90;;;;;;5010569;28;20552;-60
2021/04/16 05:18:24;;;;;;;7.72;3.75;;;1.90;99.90;;;;;;5006285;28;20378;-68
2021/04/16 05:20:50;;;;;;;7.90;3.78;;;2.10;99.90;;;;;;5014838;28;20459;-68
2021/04/16 05:23:15;;;;;;;7.95;4.00;;;2.20;99.90;;;;;;5015494;28;20626;-68
2021/04/16 05:25:41;;;;;;;10.80;4.20;;;2.40;99.90;;;;;;5012839;28;20030;-68
2021/04/16 05:28:07;;;;;;;8.82;4.07;;;2.50;99.90;;;;;;5013072;28;20077;-68
2021/04/16 05:30:33;;;;;;;10.38;4.28;;;2.60;99.90;;;;;;5012806;28;20038;-68
2021/04/16 05:32:59;;;;;;;11.00;3.92;;;2.90;99.90;;;;;;5009387;28;20852;-68
2021/04/16 05:35:26;;;;;;;8.32;4.18;;;3.10;99.90;;;;;;5014014;28;20484;-68
2021/04/16 05:37:56;;;;;;;10.95;3.90;;;3.30;99.90;;;;;;5014445;28;20091;-70
2021/04/16 05:40:22;;;;;;;;;;;3.40;99.90;;;;;;5014977;28;20037;-68
2021/04/16 05:42:48;;;;;;;8.50;4.05;;;3.70;99.90;;;;;;5014393;28;19923;-68
2021/04/16 05:45:15;;;;;;;8.50;3.50;;;3.80;99.90;;;;;;5014514;28;20045;-68
2021/04/16 05:47:41;;;;;;;7.78;3.63;;;4.00;99.90;;;;;;5012482;28;20029;-68
2021/04/16 05:50:07;;;;;;;7.00;3.55;;;4.10;99.90;;;;;;5013375;28;20040;-68
2021/04/16 05:52:33;;;;;;;9.40;3.70;;;4.30;99.90;;;;;;5014280;28;20030;-69
2021/04/16 05:54:59;;;;;;;15.05;4.22;;;4.50;99.90;;;;;;5011344;28;20037;-68
2021/04/16 05:57:25;;;;;;;7.78;4.00;;;4.70;99.90;;;;;;5010133;28;20467;-68
2021/04/16 05:59:50;;;;;;;11.95;4.20;;;4.90;99.90;;;;;;5012664;28;20037;-68
2021/04/16 06:02:35;;;;;;;10.18;3.53;;;5.10;99.90;;;;;;5010880;28;20120;-68
2021/04/16 06:05:04;;;;;;;10.40;4.03;;;5.30;99.90;;;;;;5012952;28;20041;-68
2021/04/16 06:07:31;;;;;;;5.40;2.90;;;5.40;99.90;;;;;;5011810;28;20397;-69
2021/04/16 06:09:58;;;;;;;9.30;3.85;;;5.70;99.90;;;;;;5013099;28;20040;-68
2021/04/16 06:12:25;;;;;;;11.70;3.55;;;5.90;99.90;;;;;;5006688;28;20639;-68
2021/04/16 06:14:51;;;;;;;10.20;3.83;;;6.10;99.90;;;;;;5015762;28;20132;-68
2021/04/16 06:17:18;;;;;;;11.25;4.57;;;6.20;99.90;;;;;;5013043;28;20033;-68
2021/04/16 06:19:48;;;;;;;8.98;3.40;;;6.40;99.90;;;;;;5007572;28;20340;-68
2021/04/16 06:22:15;;;;;;;11.20;3.90;;;6.60;99.90;;;;;;5008950;28;20083;-69
2021/04/16 06:24:41;;;;;;;7.97;4.28;;;6.90;99.90;;;;;;5011863;28;20041;-69
2021/04/16 06:27:08;;;;;;;9.57;3.75;;;7.00;99.90;;;;;;5016170;28;20025;-69
2021/04/16 06:29:34;;;;;;;10.60;3.08;;;7.10;99.90;;;;;;5009101;28;20029;-69
2021/04/16 06:32:01;;;;;;;10.68;3.85;;;7.30;99.90;;;;;;5014885;28;20040;-69
2021/04/16 06:34:27;;;;;;;7.63;3.63;;;7.50;99.90;;;;;;5014245;28;20080;-69
2021/04/16 06:36:53;;;;;;;8.65;3.25;;;7.70;99.90;;;;;;5017191;28;20029;-69
2021/04/16 06:39:19;;;;;;;7.20;3.22;;;8.00;99.90;;;;;;5014782;28;20721;-69
2021/04/16 06:41:47;;;;;;;6.07;2.88;;;8.10;99.90;;;;;;5013121;28;20044;-69
2021/04/16 06:44:25;;;;;;;9.80;3.30;;;8.20;99.90;;;;;;5013309;28;20044;-69
2021/04/16 06:47:17;;;;;;;5.97;3.05;;;8.40;99.90;;;;;;5011064;28;20108;-69
2021/04/16 06:49:43;;;;;;;7.93;3.67;;;8.60;99.90;;;;;;5015685;28;20041;-69
2021/04/16 06:52:20;;;;;;;6.50;2.97;;;8.70;99.90;;;;;;5017655;28;20084;-69
2021/04/16 06:55:17;;;;;;;10.52;3.08;;;8.90;99.90;;;;;;5013950;28;20569;-69
2021/04/16 06:57:59;;;;;;;5.95;3.08;;;9.10;99.90;;;;;;5013552;28;20037;-69
2021/04/16 07:00:46;;;;;;;6.65;3.13;;;9.40;99.90;;;;;;5016303;28;20048;-69
2021/04/16 07:03:25;;;;;;;8.27;3.03;;;9.60;99.90;;;;;;5011932;28;20515;-69
2021/04/16 07:05:54;;;;;;;7.30;3.20;;;9.60;99.90;;;;;;5019224;28;20823;-70
2021/04/16 07:08:44;;;;;;;7.68;2.97;;;9.70;99.90;;;;;;5016903;28;20060;-69
2021/04/16 07:11:35;;;;;;;7.25;3.10;;;9.90;99.90;;;;;;5018814;28;20041;-69
2021/04/16 07:14:03;;;;;;;7.32;3.05;;;10.10;99.90;;;;;;5011198;28;20053;-69
2021/04/16 07:16:33;;;;;;;8.00;3.33;;;10.50;99.90;;;;;;5009967;28;20150;-69
2021/04/16 07:19:07;;;;;;;8.13;2.88;;;10.70;99.90;;;;;;5018052;28;20104;-69
2021/04/16 07:21:32;;;;;;;12.95;3.92;;;10.90;99.90;;;;;;5020326;28;20077;-69
2021/04/16 07:24:02;;;;;;;6.97;2.83;;;11.30;99.90;;;;;;5018998;28;20133;-69
2021/04/16 07:26:51;;;;;;;6.03;3.20;;;11.60;99.90;;;;;;5011440;28;20051;-69
2021/04/16 07:29:40;;;;;;;7.35;3.20;;;11.80;99.90;;;;;;5010164;28;20065;-70
2021/04/16 07:32:11;;;;;;;8.20;3.10;;;12.00;99.90;;;;;;5013533;28;20033;-71
2021/04/16 07:34:46;;;;;;;6.28;3.10;;;12.20;99.90;;;;;;5011965;28;20464;-70
2021/04/16 07:37:39;;;;;;;5.97;2.13;;;12.30;99.90;;;;;;5011842;28;20099;-70
2021/04/16 07:40:10;;;;;;;8.40;3.30;;;12.50;99.90;;;;;;5008643;28;20683;-71
2021/04/16 07:42:45;;;;;;;4.93;2.50;;;12.60;99.90;;;;;;5010530;28;20037;-70
2021/04/16 07:45:33;;;;;;;10.55;3.42;;;12.50;99.90;;;;;;5018952;28;20083;-70
2021/04/16 07:48:18;;;;;;;5.65;2.63;;;12.60;99.90;;;;;;5017235;28;20374;-70
2021/04/16 07:50:52;;;;;;;6.47;2.90;;;13.00;99.90;;;;;;5020379;28;20103;-70
2021/04/16 07:53:24;;;;;;;4.72;2.63;;;13.20;99.90;;;;;;5020852;28;20507;-70
2021/04/16 07:56:07;;;;;;;8.70;3.13;;;13.60;99.90;;;;;;5020456;28;20033;-70
2021/04/16 07:58:33;;;;;;;7.75;2.95;;;13.70;99.90;;;;;;5020118;28;20038;-68
2021/04/16 08:01:29;;;;;;;9.73;2.72;;;13.90;99.90;;;;;;5016693;28;20463;-70
2021/04/16 08:04:03;;;;;;;4.90;3.17;;;14.00;99.90;;;;;;5016664;28;20529;-70
2021/04/16 08:06:37;;;;;;;12.13;2.85;;;14.20;99.90;;;;;;5014779;28;20144;-68
2021/04/16 08:09:10;;;;;;;5.00;2.25;;;14.50;99.90;;;;;;5019617;28;20029;-68
2021/04/16 08:11:36;;;;;;;5.85;2.35;;;14.60;99.90;;;;;;5020099;28;20116;-68
2021/04/16 08:14:09;;;;;;;5.72;2.25;;;14.70;99.90;;;;;;5018985;28;20037;-68
2021/04/16 08:16:53;;;;;;;7.78;2.63;;;14.80;99.90;;;;;;5017641;28;20504;-68
2021/04/16 08:19:22;;;;;;;4.10;1.92;;;14.70;99.90;;;;;;5017895;28;20112;-68
2021/04/16 08:21:58;;;;;;;4.18;1.77;;;15.10;99.90;;;;;;5019271;28;20045;-68
2021/04/16 08:24:48;;;;;;;3.63;1.92;;;15.40;99.90;;;;;;5019999;28;20429;-68
2021/04/16 08:27:32;;;;;;;3.60;2.17;;;15.20;97.90;;;;;;5021182;28;20036;-68
2021/04/16 08:30:17;;;;;;;6.35;1.60;;;15.20;97.60;;;;;;5019703;28;20076;-68
2021/04/16 08:32:56;;;;;;;2.92;1.60;;;15.30;96.70;;;;;;5014616;28;20057;-68
2021/04/16 08:35:45;;;;;;;3.47;1.92;;;15.10;97.30;;;;;;5019634;28;20040;-69
2021/04/16 08:38:16;;;;;;;5.57;1.90;;;15.50;97.30;;;;;;5018229;28;20136;-69
2021/04/16 08:40:45;;;;;;;7.43;2.05;;;15.70;94.90;;;;;;5016625;28;20132;-68
2021/04/16 08:43:37;;;;;;;9.27;2.13;;;15.90;96.00;;;;;;5019579;28;20033;-68
2021/04/16 08:46:20;;;;;;;7.18;2.30;;;16.00;95.40;;;;;;5017010;28;20033;-69
2021/04/16 08:48:53;;;;;;;4.55;1.83;;;16.10;94.00;;;;;;5019382;28;20692;-69
2021/04/16 08:51:20;;;;;;;6.18;2.00;;;16.40;92.00;;;;;;5018372;28;20029;-69
2021/04/16 08:53:45;;;;;;;3.75;1.83;;;16.40;93.50;;;;;;5016077;28;20054;-69
2021/04/16 08:56:27;;;;;;;7.57;2.05;;;16.30;92.50;;;;;;5017886;28;20157;-69
2021/04/16 08:58:54;;;;;;;3.47;1.63;;;16.10;93.30;;;;;;5019464;28;20037;-68
2021/04/16 09:01:28;;;;;;;3.80;1.63;;;16.40;92.90;;;;;;5018598;28;20120;-69
2021/04/16 09:04:11;;;;;;;2.65;1.90;;;16.50;91.00;;;;;;5015731;28;20049;-69
2021/04/16 09:06:37;;;;;;;4.28;1.65;;;16.30;91.80;;;;;;5016269;28;20116;-69
2021/04/16 09:09:06;;;;;;;2.65;1.60;;;16.40;89.30;;;;;;5010989;28;20055;-69
2021/04/16 09:11:42;;;;;;;5.63;1.48;;;15.80;90.80;;;;;;5012750;28;20036;-69
2021/04/16 09:14:23;;;;;;;3.50;1.70;;;15.90;92.40;;;;;;5006599;28;20041;-69
2021/04/16 09:16:51;;;;;;;3.10;1.80;;;15.80;90.00;;;;;;5011288;28;20087;-69
2021/04/16 09:19:23;;;;;;;5.00;1.98;;;16.00;92.20;;;;;;5012064;28;20041;-68
2021/04/16 09:22:05;;;;;;;3.78;1.85;;;15.90;90.60;;;;;;5005521;28;20524;-69
2021/04/16 09:24:53;;;;;;;4.07;1.95;;;15.90;90.70;;;;;;5007842;28;20469;-69
2021/04/16 09:27:37;;;;;;;2.92;1.95;;;16.30;90.20;;;;;;5009748;28;20038;-69
2021/04/16 09:30:06;;;;;;;4.78;2.05;;;16.00;90.50;;;;;;5006149;28;20025;-69
2021/04/16 09:32:45;;;;;;;5.40;1.70;;;15.60;95.40;;;;;;5016736;28;20037;-69
2021/04/16 09:35:17;;;;;;;3.13;1.60;;;16.20;92.20;;;;;;5007595;28;20046;-69
2021/04/16 09:37:45;;;;;;;4.10;2.13;;;16.70;89.00;;;;;;5014087;28;20145;-69
2021/04/16 09:40:29;;;;;;;5.18;2.22;;;17.10;91.00;;;;;;5008171;28;20037;-69
2021/04/16 09:43:09;;;;;;;5.53;1.83;;;16.70;83.00;;;;;;5004766;28;20041;-69
2021/04/16 09:45:38;;;;;;;2.38;1.50;;;16.40;86.80;;;;;;5012175;28;20061;-69
2021/04/16 09:48:05;;;;;;;3.85;1.60;;;16.60;83.20;;;;;;5013601;28;20488;-69
2021/04/16 09:50:35;;;;;;;3.50;1.83;;;16.80;83.20;;;;;;5006767;28;20064;-69
2021/04/16 09:53:15;;;;;;;5.80;2.28;;;17.00;81.60;;;;;;5010487;28;20037;-69
2021/04/16 09:55:50;;;;;;;2.97;1.50;;;17.50;81.60;;;;;;5007158;28;20040;-69
2021/04/16 09:58:31;;;;;;;4.40;1.77;;;17.90;78.20;;;;;;5013484;28;20108;-69
2021/04/16 10:00:58;;;;;;;4.47;1.25;;;17.60;72.00;;;;;;5017877;28;20033;-69
2021/04/16 10:03:33;;;;;;;3.13;1.27;;;18.00;64.70;;;;;;5012313;28;20037;-69
2021/04/16 10:06:13;;;;;;;2.90;1.35;;;16.80;68.00;;;;;;5011546;28;20033;-70
2021/04/16 10:08:40;;;;;;;2.47;1.30;;;15.70;74.30;;;;;;5014762;28;20057;-69
2021/04/16 10:11:08;;;;;;;1.73;1.20;;;16.10;75.70;;;;;;5015971;28;20033;-69
2021/04/16 10:13:39;;;;;;;3.03;1.40;;;16.40;73.50;;;;;;5013197;28;20041;-69
2021/04/16 10:16:25;;;;;;;6.50;1.58;;;16.30;73.50;;;;;;5015127;28;20034;-69
2021/04/16 10:18:51;;;;;;;4.65;1.58;;;16.20;69.00;;;;;;5012254;28;20095;-69
2021/04/16 10:21:18;;;;;;;7.68;1.33;;;16.20;70.70;;;;;;5006532;28;20065;-71
2021/04/16 10:23:51;;;;;;;4.88;1.40;;;16.10;71.10;;;;;;5011069;28;20103;-69
2021/04/16 10:39:43;;;;;;;2.40;1.38;;;17.50;70.10;;;;;;5005647;28;20580;-69
2021/04/16 11:10:53;;;;;;;2.45;0.95;;;14.40;72.40;;;;;;5008989;28;20030;-70
2021/04/16 11:31:59;;;;;;;4.03;1.20;;;16.90;73.10;;;;;;5008624;28;20033;-70
2021/04/16 12:41:38;;;;;;;5.78;1.45;;;18.50;59.50;;;;;;5010855;28;20370;-70
2021/04/16 12:44:05;;;;;;;6.78;1.52;;;18.20;58.80;;;;;;5004005;28;20065;-70
2021/04/16 12:46:38;;;;;;;3.28;1.27;;;18.30;60.00;;;;;;5007951;28;20124;-69
2021/04/16 12:49:05;;;;;;;5.35;1.60;;;18.00;56.90;;;;;;5016469;28;20406;-69
2021/04/16 12:51:32;;;;;;;3.20;1.20;;;17.10;58.80;;;;;;5012793;28;20514;-69
2021/04/16 12:53:57;;;;;;;4.97;1.30;;;16.80;62.00;;;;;;5008464;28;20060;-69
2021/04/16 12:56:33;;;;;;;7.35;1.52;;;17.20;63.30;;;;;;5015068;28;20147;-69
2021/04/16 12:59:08;;;;;;;4.68;1.38;;;17.10;61.70;;;;;;5013035;28;20446;-70
2021/04/16 13:01:34;;;;;;;5.35;1.42;;;16.90;60.10;;;;;;5012645;28;20029;-70
2021/04/16 13:04:00;;;;;;;3.70;1.60;;;17.50;63.50;;;;;;5014534;28;20052;-69
2021/04/16 13:06:31;;;;;;;4.25;1.77;;;18.40;61.00;;;;;;5010872;28;20386;-70
2021/04/16 13:08:57;;;;;;;2.38;1.52;;;18.40;55.30;;;;;;5011965;28;20033;-69
2021/04/16 13:11:24;;;;;;;2.50;1.35;;;17.70;57.80;;;;;;5011285;28;20033;-69
2021/04/16 13:13:51;;;;;;;5.22;1.75;;;17.20;58.20;;;;;;5014751;28;20030;-69
2021/04/16 13:16:18;;;;;;;3.83;1.95;;;17.00;60.40;;;;;;5012333;28;20045;-69
2021/04/16 13:18:47;;;;;;;4.57;1.40;;;16.70;59.80;;;;;;5010569;28;20715;-69
2021/04/16 13:21:18;;;;;;;;;;;16.50;58.60;;;;;;5011096;28;20484;-69
2021/04/16 13:23:44;;;;;;;2.72;1.30;;;16.70;66.60;;;;;;5009399;28;20339;-69
2021/04/16 13:26:10;;;;;;;3.92;1.25;;;17.10;59.30;;;;;;5009841;28;20056;-69
2021/04/16 13:28:36;;;;;;;4.60;1.52;;;17.00;59.60;;;;;;5012999;28;20040;-69
2021/04/16 13:31:02;;;;;;;5.22;1.60;;;16.90;60.80;;;;;;5014347;28;20509;-69
2021/04/16 13:33:29;;;;;;;4.05;1.50;;;16.70;58.80;;;;;;5012626;28;20029;-69
2021/04/16 13:35:55;;;;;;;4.82;1.23;;;16.60;59.30;;;;;;5009851;28;20034;-69
2021/04/16 13:38:27;;;;;;;4.93;1.08;;;16.80;60.00;;;;;;5012963;28;20556;-70
2021/04/16 13:40:54;;;;;;;2.28;1.15;;;16.70;59.50;;;;;;5014264;28;20044;-69
2021/04/16 13:43:21;;;;;;;2.95;1.38;;;16.30;60.50;;;;;;5010153;28;20048;-69
2021/04/16 13:45:47;;;;;;;7.85;1.40;;;15.90;60.40;;;;;;5012899;28;20025;-69
2021/04/16 13:48:14;;;;;;;4.28;1.20;;;15.50;61.00;;;;;;5011901;28;20083;-69
2021/04/16 13:50:40;;;;;;;5.70;1.45;;;15.10;60.80;;;;;;5010355;28;20029;-69
2021/04/16 13:53:06;;;;;;;3.45;1.73;;;15.10;62.30;;;;;;5009299;28;20741;-69
2021/04/16 13:55:32;;;;;;;5.40;1.50;;;15.20;65.80;;;;;;5011009;28;20547;-69
2021/04/16 13:57:59;;;;;;;3.72;1.20;;;15.50;67.40;;;;;;5011620;28;20107;-69
2021/04/16 14:00:28;;;;;;;3.00;1.10;;;16.00;66.30;;;;;;5008004;28;20538;-69
2021/04/16 14:03:15;;;;;;;2.35;1.20;;;16.20;63.40;;;;;;5004397;28;20034;-68
2021/04/16 14:05:49;;;;;;;7.35;1.45;;;16.20;60.20;;;;;;5003767;28;20036;-68
2021/04/16 14:08:34;;;;;;;2.33;1.33;;;16.00;62.90;;;;;;5012094;28;20040;-68
2021/04/16 14:11:00;;;;;;;5.80;1.70;;;16.20;61.40;;;;;;5007382;28;20687;-68
2021/04/16 14:13:30;;;;;;;3.47;1.35;;;16.00;62.20;;;;;;5013515;28;20140;-69
2021/04/16 14:15:57;;;;;;;;;;;15.90;64.20;;;;;;5010844;28;20029;-69
2021/04/16 14:18:33;;;;;;;4.15;1.65;;;16.20;58.60;;;;;;5013148;28;19920;-68
2021/04/16 14:20:59;;;;;;;4.53;1.58;;;16.10;60.80;;;;;;5012536;28;20042;-69
2021/04/16 14:23:25;;;;;;;4.43;1.20;;;15.70;61.10;;;;;;5009983;28;20042;-69
2021/04/16 14:25:51;;;;;;;1.73;1.25;;;15.30;63.60;;;;;;5012700;28;20132;-69
2021/04/16 14:28:20;;;;;;;3.35;1.60;;;15.20;63.10;;;;;;5012208;28;22225;-69
2021/04/16 14:30:46;;;;;;;2.95;1.40;;;15.20;65.40;;;;;;5009085;28;20038;-68
2021/04/16 14:33:20;;;;;;;2.38;1.00;;;15.40;62.00;;;;;;5013078;28;20033;-69
2021/04/16 14:35:46;;;;;;;5.50;1.67;;;15.30;67.60;;;;;;5007346;28;20045;-62
2021/04/16 14:38:12;;;;;;;2.95;1.50;;;15.80;64.40;;;;;;5015454;28;20033;-62
2021/04/16 14:40:38;;;;;;;3.67;1.65;;;16.30;62.40;;;;;;5015053;28;20485;-61
2021/04/16 14:43:07;;;;;;;3.63;1.30;;;16.80;61.90;;;;;;5009465;28;20045;-61
2021/04/16 14:45:41;;;;;;;4.60;1.25;;;17.00;60.70;;;;;;5008366;28;20040;-61
2021/04/16 14:48:07;;;;;;;6.18;1.35;;;17.60;59.20;;;;;;5011318;28;20052;-61
2021/04/16 14:50:33;;;;;;;2.40;1.33;;;17.50;60.60;;;;;;5011516;28;20769;-61
2021/04/16 14:53:03;;;;;;;3.28;1.20;;;17.60;59.10;;;;;;5009585;28;20063;-61
2021/04/16 14:55:35;;;;;;;2.80;1.00;;;17.70;56.10;;;;;;5014524;28;20036;-61
2021/04/16 14:58:03;;;;;;;2.08;1.45;;;17.80;59.60;;;;;;5013441;28;20137;-61
2021/04/16 15:00:32;;;;;;;3.47;1.38;;;17.80;59.20;;;;;;5009082;28;20552;-61
2021/04/16 15:02:58;;;;;;;3.67;1.20;;;17.20;59.40;;;;;;5012128;28;20040;-61
2021/04/16 15:05:25;;;;;;;2.30;1.20;;;16.80;59.10;;;;;;5011063;28;20038;-61
2021/04/16 15:07:55;;;;;;;4.28;1.00;;;16.30;59.80;;;;;;5012007;28;20552;-61
2021/04/16 15:10:30;;;;;;;2.83;1.60;;;15.90;60.80;;;;;;5012452;28;20041;-61
2021/04/16 15:12:56;;;;;;;3.15;1.13;;;15.60;61.80;;;;;;5010612;28;20064;-62
2021/04/16 15:15:37;;;;;;;2.83;1.27;;;15.40;63.40;;;;;;5006597;28;20037;-60